createdAt,value
2018-08-17T00:00:57.437Z,61.30
2018-08-17T00:03:25.795Z,61.60
2018-08-17T00:05:54.116Z,61.30
2018-08-17T00:08:22.428Z,61.20
2018-08-17T00:10:50.757Z,61.40
2018-08-17T00:13:19.052Z,61.80
2018-08-17T00:15:47.375Z,61.80
2018-08-17T00:18:15.676Z,61.90
2018-08-17T00:20:43.981Z,62.30
2018-08-17T00:23:12.304Z,62.60
2018-08-17T00:25:40.617Z,62.80
2018-08-17T00:28:08.948Z,63.00
2018-08-17T00:30:37.269Z,62.90
2018-08-17T00:33:05.693Z,63.50
2018-08-17T00:35:34.000Z,63.40
2018-08-17T00:38:02.329Z,63.40
2018-08-17T00:40:30.644Z,63.60
2018-08-17T00:42:59.017Z,63.30
2018-08-17T00:45:27.454Z,63.20
2018-08-17T00:47:55.818Z,63.30
2018-08-17T00:50:24.119Z,63.50
2018-08-17T00:52:52.452Z,63.80
2018-08-17T00:55:20.762Z,63.80
2018-08-17T00:57:49.085Z,64.00
2018-08-17T01:00:17.418Z,63.60
2018-08-17T01:02:45.732Z,63.90
2018-08-17T01:05:14.048Z,64.00
2018-08-17T01:07:42.814Z,64.40
2018-08-17T01:10:11.108Z,64.40
2018-08-17T01:12:39.429Z,64.40
2018-08-17T01:15:07.747Z,64.50
2018-08-17T01:17:36.094Z,64.80
2018-08-17T01:20:05.919Z,65.50
2018-08-17T01:22:34.243Z,65.80
2018-08-17T01:25:02.548Z,65.00
2018-08-17T01:27:30.888Z,65.40
2018-08-17T01:30:05.546Z,65.30
2018-08-17T01:32:33.896Z,65.20
2018-08-17T01:35:02.202Z,65.40
2018-08-17T01:37:30.532Z,65.70
2018-08-17T01:39:58.884Z,65.90
2018-08-17T01:42:27.250Z,66.10
2018-08-17T01:44:55.585Z,66.10
2018-08-17T01:47:23.918Z,66.40
2018-08-17T01:49:52.222Z,66.30
2018-08-17T01:52:20.553Z,66.60
2018-08-17T01:54:48.863Z,66.90
2018-08-17T01:57:17.184Z,66.70
2018-08-17T01:59:45.508Z,67.10
2018-08-17T02:02:13.864Z,67.20
2018-08-17T02:04:42.185Z,67.50
2018-08-17T02:07:10.652Z,67.40
2018-08-17T02:09:38.955Z,67.40
2018-08-17T02:12:07.312Z,67.70
2018-08-17T02:14:35.668Z,67.50
2018-08-17T02:17:03.969Z,67.40
2018-08-17T02:19:32.259Z,68.10
2018-08-17T02:22:00.625Z,67.30
2018-08-17T02:24:28.983Z,67.70
2018-08-17T02:26:57.300Z,67.60
2018-08-17T02:29:25.602Z,67.80
2018-08-17T02:31:53.945Z,68.00
2018-08-17T02:34:22.266Z,67.90
2018-08-17T02:36:50.593Z,68.10
2018-08-17T02:39:18.939Z,68.10
2018-08-17T02:41:47.270Z,68.40
2018-08-17T02:44:15.597Z,68.00
2018-08-17T02:46:43.933Z,68.30
2018-08-17T02:49:12.268Z,68.20
2018-08-17T02:51:40.629Z,68.40
2018-08-17T02:54:08.964Z,68.30
2018-08-17T02:56:37.260Z,68.60
2018-08-17T02:59:05.641Z,68.40
2018-08-17T03:01:34.002Z,68.70
2018-08-17T03:04:02.330Z,68.50
2018-08-17T03:06:30.641Z,68.50
2018-08-17T03:08:58.979Z,68.60
2018-08-17T03:11:27.324Z,68.80
2018-08-17T03:13:55.661Z,69.00
2018-08-17T03:16:23.970Z,69.10
2018-08-17T03:18:52.408Z,69.20
2018-08-17T03:21:20.715Z,70.00
2018-08-17T03:23:49.033Z,69.10
2018-08-17T03:26:17.331Z,69.10
2018-08-17T03:28:45.661Z,69.50
2018-08-17T03:31:13.985Z,69.20
2018-08-17T03:33:42.311Z,69.40
2018-08-17T03:36:10.624Z,69.50
2018-08-17T03:38:38.953Z,69.30
2018-08-17T03:41:07.263Z,69.40
2018-08-17T03:43:35.575Z,69.30
2018-08-17T03:46:03.905Z,69.20
2018-08-17T03:48:32.263Z,69.30
2018-08-17T03:51:00.660Z,69.50
2018-08-17T03:53:29.052Z,69.80
2018-08-17T03:55:57.716Z,69.80
2018-08-17T03:58:29.185Z,69.50
2018-08-17T04:00:57.541Z,69.60
2018-08-17T04:03:25.961Z,70.00
2018-08-17T04:05:54.276Z,70.20
2018-08-17T04:08:22.603Z,69.70
2018-08-17T04:10:50.906Z,69.90
2018-08-17T04:13:19.217Z,70.10
2018-08-17T04:15:47.544Z,70.10
2018-08-17T04:18:15.873Z,70.40
2018-08-17T04:20:44.209Z,70.40
2018-08-17T04:23:12.566Z,70.60
2018-08-17T04:25:40.874Z,70.80
2018-08-17T04:28:09.194Z,71.20
2018-08-17T04:30:37.523Z,70.40
2018-08-17T04:33:05.859Z,70.50
2018-08-17T04:35:34.274Z,70.50
2018-08-17T04:38:02.556Z,70.70
2018-08-17T04:40:30.916Z,70.80
2018-08-17T04:42:59.283Z,70.90
2018-08-17T04:45:27.629Z,71.20
2018-08-17T04:47:55.981Z,71.20
2018-08-17T04:50:24.292Z,71.50
2018-08-17T04:52:52.659Z,71.60
2018-08-17T04:55:21.009Z,71.60
2018-08-17T04:57:49.331Z,71.50
2018-08-17T05:00:17.682Z,71.50
2018-08-17T05:02:45.972Z,71.60
2018-08-17T05:05:14.291Z,71.80
2018-08-17T05:07:42.741Z,72.00
2018-08-17T05:10:11.065Z,71.80
2018-08-17T05:12:39.360Z,71.90
2018-08-17T05:15:07.727Z,72.20
2018-08-17T05:17:36.024Z,72.50
2018-08-17T05:20:04.728Z,73.30
2018-08-17T05:22:33.024Z,72.80
2018-08-17T05:25:01.365Z,73.20
2018-08-17T05:27:29.688Z,73.40
2018-08-17T05:29:58.004Z,73.70
2018-08-17T05:32:26.356Z,73.90
2018-08-17T05:34:54.683Z,74.10
2018-08-17T05:37:22.980Z,74.10
2018-08-17T05:39:51.299Z,74.30
2018-08-17T05:42:19.607Z,74.40
2018-08-17T05:44:47.920Z,74.70
2018-08-17T05:47:16.230Z,74.80
2018-08-17T05:49:44.559Z,74.80
2018-08-17T05:52:12.864Z,75.00
2018-08-17T05:54:41.180Z,75.10
2018-08-17T05:57:09.479Z,75.10
2018-08-17T05:59:37.949Z,75.10
2018-08-17T06:02:06.261Z,75.00
2018-08-17T06:04:34.603Z,75.00
2018-08-17T06:07:02.944Z,75.10
2018-08-17T06:09:31.268Z,75.10
2018-08-17T06:11:59.625Z,75.40
2018-08-17T06:14:27.995Z,75.10
2018-08-17T06:16:56.348Z,75.30
2018-08-17T06:19:24.710Z,75.00
2018-08-17T06:21:53.036Z,75.10
2018-08-17T06:24:21.357Z,75.00
2018-08-17T06:26:49.657Z,74.90
2018-08-17T06:29:18.021Z,75.00
2018-08-17T06:31:46.426Z,74.60
2018-08-17T06:34:14.808Z,74.50
2018-08-17T06:36:43.135Z,74.40
2018-08-17T06:39:12.148Z,74.20
2018-08-17T06:41:40.571Z,74.00
2018-08-17T06:44:08.909Z,74.00
2018-08-17T06:46:37.208Z,73.70
2018-08-17T06:49:05.540Z,73.80
2018-08-17T06:51:33.853Z,73.80
2018-08-17T06:54:02.169Z,73.40
2018-08-17T06:56:30.548Z,73.40
2018-08-17T06:58:58.969Z,73.40
2018-08-17T07:01:27.304Z,73.40
2018-08-17T07:03:55.663Z,73.60
2018-08-17T07:06:23.982Z,73.30
2018-08-17T07:08:52.426Z,73.00
2018-08-17T07:11:20.643Z,73.00
2018-08-17T07:13:48.948Z,72.80
2018-08-17T07:16:17.313Z,72.70
2018-08-17T07:18:45.680Z,72.30
2018-08-17T07:21:14.043Z,72.40
2018-08-17T07:23:42.360Z,73.00
2018-08-17T07:26:11.529Z,72.00
2018-08-17T07:28:39.877Z,71.90
2018-08-17T07:31:08.225Z,71.60
2018-08-17T07:33:36.557Z,71.60
2018-08-17T07:36:04.909Z,71.60
2018-08-17T07:38:33.233Z,71.50
2018-08-17T07:41:01.597Z,71.20
2018-08-17T07:43:29.977Z,71.20
2018-08-17T07:45:58.360Z,71.00
2018-08-17T07:48:27.028Z,70.80
2018-08-17T07:50:55.367Z,70.70
2018-08-17T07:53:23.667Z,70.70
2018-08-17T07:55:51.992Z,70.80
2018-08-17T07:58:20.323Z,70.50
2018-08-17T08:00:48.653Z,70.60
2018-08-17T08:03:16.956Z,70.50
2018-08-17T08:05:45.284Z,70.50
2018-08-17T08:08:13.633Z,70.70
2018-08-17T08:10:41.985Z,70.60
2018-08-17T08:13:10.306Z,70.00
2018-08-17T08:15:38.625Z,69.70
2018-08-17T08:18:06.928Z,69.60
2018-08-17T08:20:37.258Z,69.10
2018-08-17T08:23:17.096Z,68.70
2018-08-17T08:25:45.430Z,68.50
2018-08-17T08:28:13.765Z,68.50
2018-08-17T08:30:42.128Z,68.70
2018-08-17T08:33:10.456Z,68.00
2018-08-17T08:35:38.795Z,68.00
2018-08-17T08:38:07.101Z,67.40
2018-08-17T08:40:35.469Z,67.50
2018-08-17T08:43:03.764Z,67.00
2018-08-17T08:45:32.151Z,66.70
2018-08-17T08:48:00.488Z,66.10
2018-08-17T08:50:28.884Z,66.20
2018-08-17T08:52:57.207Z,65.30
2018-08-17T08:55:25.577Z,64.90
2018-08-17T08:57:53.898Z,65.60
2018-08-17T09:00:22.252Z,65.40
2018-08-17T09:02:50.597Z,65.50
2018-08-17T09:05:18.932Z,66.40
2018-08-17T09:07:47.265Z,65.70
2018-08-17T09:10:15.599Z,65.00
2018-08-17T09:12:43.945Z,64.60
2018-08-17T09:15:12.889Z,63.70
2018-08-17T09:17:42.533Z,63.80
2018-08-17T09:20:13.086Z,62.70
2018-08-17T09:22:41.790Z,62.00
2018-08-17T09:25:10.089Z,62.40
2018-08-17T09:27:38.401Z,62.60
2018-08-17T09:30:10.183Z,61.70
2018-08-17T09:32:38.610Z,60.90
2018-08-17T09:35:07.073Z,60.50
2018-08-17T09:37:35.425Z,60.00
2018-08-17T09:40:04.079Z,60.30
2018-08-17T09:42:32.396Z,60.90
2018-08-17T09:45:00.758Z,60.80
2018-08-17T09:47:29.288Z,60.40
2018-08-17T09:49:57.670Z,60.60
2018-08-17T09:52:25.989Z,59.80
2018-08-17T09:54:54.293Z,59.10
2018-08-17T09:57:22.615Z,58.50
2018-08-17T09:59:50.973Z,58.30
2018-08-17T10:02:25.378Z,57.80
2018-08-17T10:04:59.021Z,57.20
2018-08-17T10:07:32.838Z,57.60
2018-08-17T10:10:06.483Z,58.20
2018-08-17T10:12:34.874Z,57.50
2018-08-17T10:15:03.600Z,57.20
2018-08-17T10:17:31.924Z,57.10
2018-08-17T10:20:00.351Z,57.20
2018-08-17T10:22:28.883Z,57.20
2018-08-17T10:25:01.652Z,57.50
2018-08-17T10:27:30.084Z,56.90
2018-08-17T10:29:58.468Z,56.50
2018-08-17T10:32:26.923Z,55.70
2018-08-17T10:34:55.250Z,55.80
2018-08-17T10:37:23.565Z,55.80
2018-08-17T10:39:51.871Z,55.70
2018-08-17T10:42:20.190Z,56.10
2018-08-17T10:44:48.496Z,56.10
2018-08-17T10:47:16.829Z,54.90
2018-08-17T10:49:45.180Z,53.80
2018-08-17T10:52:13.547Z,53.80
2018-08-17T10:54:41.878Z,55.20
2018-08-17T10:57:10.218Z,55.30
2018-08-17T10:59:38.550Z,54.60
2018-08-17T11:02:07.273Z,54.10
2018-08-17T11:04:35.940Z,53.80
2018-08-17T11:07:04.468Z,53.40
2018-08-17T11:09:36.020Z,53.20
2018-08-17T11:12:05.337Z,52.30
2018-08-17T11:14:33.681Z,52.30
2018-08-17T11:17:02.089Z,52.40
2018-08-17T11:19:30.420Z,52.70
2018-08-17T11:21:58.817Z,52.50
2018-08-17T11:24:27.159Z,52.10
2018-08-17T11:26:56.406Z,52.20
2018-08-17T11:29:24.744Z,51.90
2018-08-17T11:31:54.326Z,51.30
2018-08-17T11:34:22.941Z,51.00
2018-08-17T11:36:51.217Z,50.90
2018-08-17T11:39:19.531Z,50.80
2018-08-17T11:41:47.858Z,49.30
2018-08-17T11:44:16.566Z,49.50
2018-08-17T11:46:45.149Z,48.70
2018-08-17T11:49:13.472Z,48.60
2018-08-17T11:51:41.968Z,48.00
2018-08-17T11:54:11.816Z,47.20
2018-08-17T11:56:40.468Z,47.10
2018-08-17T11:59:08.813Z,46.50
2018-08-17T12:01:37.125Z,46.50
2018-08-17T12:04:05.452Z,46.50
2018-08-17T12:06:33.824Z,45.70
2018-08-17T12:09:02.204Z,45.90
2018-08-17T12:11:30.656Z,44.90
2018-08-17T12:13:59.034Z,45.20
2018-08-17T12:16:27.404Z,44.90
2018-08-17T12:18:56.001Z,44.30
2018-08-17T12:21:24.308Z,44.60
2018-08-17T12:23:52.632Z,44.90
2018-08-17T12:26:20.942Z,44.10
2018-08-17T12:28:49.310Z,43.70
2018-08-17T12:31:17.613Z,43.50
2018-08-17T12:33:45.984Z,43.00
2018-08-17T12:36:14.297Z,42.70
2018-08-17T12:38:42.648Z,42.80
2018-08-17T12:41:10.956Z,43.30
2018-08-17T12:43:40.131Z,42.30
2018-08-17T12:46:08.431Z,41.60
2018-08-17T12:48:36.772Z,40.80
2018-08-17T12:51:06.349Z,41.20
2018-08-17T12:53:34.685Z,40.80
2018-08-17T12:56:03.000Z,41.10
2018-08-17T12:58:31.456Z,41.00
2018-08-17T13:00:59.771Z,40.70
2018-08-17T13:03:28.144Z,40.90
2018-08-17T13:05:56.459Z,40.70
2018-08-17T13:08:24.782Z,40.40
2018-08-17T13:10:56.783Z,40.20
2018-08-17T13:13:25.027Z,39.80
2018-08-17T13:15:58.887Z,39.40
2018-08-17T13:18:27.323Z,39.10
2018-08-17T13:20:55.660Z,38.90
2018-08-17T13:23:24.000Z,39.20
2018-08-17T13:25:52.579Z,38.60
2018-08-17T13:28:20.902Z,38.00
2018-08-17T13:30:49.255Z,37.90
2018-08-17T13:33:17.592Z,38.20
2018-08-17T13:35:45.901Z,38.20
2018-08-17T13:38:14.248Z,38.10
2018-08-17T13:40:42.576Z,37.10
2018-08-17T13:43:10.918Z,37.00
2018-08-17T13:45:39.232Z,37.30
2018-08-17T13:48:07.701Z,37.50
2018-08-17T13:50:36.045Z,37.00
2018-08-17T13:53:04.400Z,37.00
2018-08-17T13:55:32.818Z,36.60
2018-08-17T13:58:01.116Z,36.40
2018-08-17T14:00:29.490Z,36.20
2018-08-17T14:02:57.836Z,36.20
2018-08-17T14:05:26.202Z,36.50
2018-08-17T14:07:54.568Z,36.60
2018-08-17T14:10:22.892Z,36.60
2018-08-17T14:12:51.219Z,37.20
2018-08-17T14:15:19.520Z,36.60
2018-08-17T14:17:47.844Z,35.80
2018-08-17T14:20:16.618Z,36.00
2018-08-17T14:22:44.943Z,35.80
2018-08-17T14:25:13.308Z,35.60
2018-08-17T14:27:41.758Z,35.30
2018-08-17T14:30:13.815Z,35.30
2018-08-17T14:32:42.707Z,34.90
2018-08-17T14:35:11.061Z,35.10
2018-08-17T14:37:39.392Z,35.00
2018-08-17T14:40:08.565Z,35.00
2018-08-17T14:42:36.937Z,34.90
2018-08-17T14:45:06.205Z,34.90
2018-08-17T14:47:34.508Z,35.00
2018-08-17T14:50:02.836Z,34.70
2018-08-17T14:52:31.173Z,34.80
2018-08-17T14:54:59.515Z,34.70
2018-08-17T14:57:27.837Z,34.30
2018-08-17T14:59:56.230Z,34.80
2018-08-17T15:02:24.529Z,35.10
2018-08-17T15:04:52.845Z,35.20
2018-08-17T15:07:21.148Z,35.60
2018-08-17T15:09:49.466Z,35.60
2018-08-17T15:12:17.781Z,35.70
2018-08-17T15:14:46.107Z,35.70
2018-08-17T15:17:14.420Z,35.70
2018-08-17T15:19:42.777Z,35.60
2018-08-17T15:22:11.146Z,35.70
2018-08-17T15:24:39.468Z,35.70
2018-08-17T15:27:07.793Z,35.90
2018-08-17T15:29:36.115Z,35.90
2018-08-17T15:32:04.428Z,35.30
2018-08-17T15:34:32.758Z,35.60
2018-08-17T15:37:01.081Z,35.80
2018-08-17T15:39:29.429Z,36.00
2018-08-17T15:41:57.847Z,36.20
2018-08-17T15:44:27.003Z,36.10
2018-08-17T15:46:56.812Z,35.90
2018-08-17T15:49:30.600Z,36.10
2018-08-17T15:51:59.404Z,36.50
2018-08-17T15:54:27.727Z,36.70
2018-08-17T15:56:56.048Z,36.80
2018-08-17T15:59:24.399Z,36.80
2018-08-17T16:01:52.712Z,36.90
2018-08-17T16:04:21.060Z,36.80
2018-08-17T16:06:49.364Z,37.00
2018-08-17T16:09:17.740Z,37.30
2018-08-17T16:11:46.067Z,37.10
2018-08-17T16:14:14.400Z,37.30
2018-08-17T16:16:42.722Z,37.60
2018-08-17T16:19:11.049Z,37.80
2018-08-17T16:21:39.360Z,38.30
2018-08-17T16:24:07.791Z,38.00
2018-08-17T16:26:36.114Z,38.70
2018-08-17T16:29:04.813Z,39.00
2018-08-17T16:31:39.238Z,38.60
2018-08-17T16:34:08.476Z,38.60
2018-08-17T16:36:37.235Z,38.80
2018-08-17T16:39:08.967Z,39.10
2018-08-17T16:41:37.560Z,38.90
2018-08-17T16:44:06.000Z,39.10
2018-08-17T16:46:34.393Z,39.40
2018-08-17T16:49:02.714Z,39.40
2018-08-17T16:51:31.085Z,39.30
2018-08-17T16:53:59.432Z,39.80
2018-08-17T16:56:27.844Z,41.00
2018-08-17T16:58:56.246Z,41.90
2018-08-17T17:02:27.546Z,42.70
2018-08-17T17:04:55.888Z,43.10
2018-08-17T17:07:30.986Z,43.50
2018-08-17T17:09:59.693Z,43.90
2018-08-17T17:12:28.065Z,44.20
2018-08-17T17:15:06.451Z,44.60
2018-08-17T17:17:34.800Z,44.80
2018-08-17T17:20:03.128Z,45.10
2018-08-17T17:22:31.446Z,45.30
2018-08-17T17:25:04.269Z,45.70
2018-08-17T17:27:32.568Z,45.80
2018-08-17T17:30:00.916Z,46.00
2018-08-17T17:32:29.256Z,46.30
2018-08-17T17:34:57.613Z,46.50
2018-08-17T17:37:25.923Z,46.70
2018-08-17T17:39:54.252Z,46.90
2018-08-17T17:42:22.560Z,47.20
2018-08-17T17:44:50.889Z,47.60
2018-08-17T17:47:19.239Z,47.70
2018-08-17T17:49:47.562Z,47.90
2018-08-17T17:52:15.903Z,48.20
2018-08-17T17:54:44.242Z,48.20
2018-08-17T17:57:12.542Z,48.50
2018-08-17T17:59:48.216Z,48.50
2018-08-17T18:02:16.548Z,48.70
2018-08-17T18:04:44.875Z,48.80
2018-08-17T18:07:13.198Z,49.00
2018-08-17T18:09:41.524Z,49.20
2018-08-17T18:12:09.863Z,49.30
2018-08-17T18:14:38.155Z,49.40
2018-08-17T18:17:06.639Z,49.40
2018-08-17T18:19:34.967Z,49.40
2018-08-17T18:22:03.309Z,49.30
2018-08-17T18:24:31.620Z,49.30
2018-08-17T18:27:00.738Z,49.50
2018-08-17T18:36:35.625Z,49.50
2018-08-17T18:39:05.905Z,49.60
2018-08-17T18:41:34.277Z,49.60
2018-08-17T18:44:02.616Z,49.70
2018-08-17T18:46:30.998Z,49.60
2018-08-17T18:48:59.341Z,49.80
2018-08-17T18:51:27.745Z,50.00
2018-08-17T18:53:56.081Z,50.10
2018-08-17T18:56:24.396Z,50.30
2018-08-17T18:58:52.718Z,51.00
2018-08-17T19:01:21.036Z,50.50
2018-08-17T19:03:49.328Z,50.70
2018-08-17T19:06:17.661Z,50.90
2018-08-17T19:08:45.969Z,51.20
2018-08-17T19:11:14.308Z,51.50
2018-08-17T19:13:42.619Z,51.60
2018-08-17T19:16:10.969Z,51.80
2018-08-17T19:18:39.284Z,52.10
2018-08-17T19:21:10.045Z,52.30
2018-08-17T19:23:38.626Z,52.60
2018-08-17T19:26:08.065Z,52.80
2018-08-17T19:28:36.395Z,52.90
2018-08-17T19:31:04.761Z,53.20
2018-08-17T19:33:33.064Z,53.40
2018-08-17T19:36:02.607Z,53.60
2018-08-17T19:38:36.916Z,53.70
2018-08-17T19:41:05.335Z,53.90
2018-08-17T19:43:33.636Z,54.00
2018-08-17T19:46:02.079Z,54.20
2018-08-17T19:48:30.516Z,54.40
2018-08-17T19:50:58.878Z,54.50
2018-08-17T19:53:27.389Z,54.50
2018-08-17T19:55:55.760Z,54.70
2018-08-17T19:58:24.203Z,54.90
2018-08-17T20:00:52.556Z,55.10
2018-08-17T20:03:20.848Z,55.20
2018-08-17T20:05:49.189Z,55.40
2018-08-17T20:08:17.490Z,55.60
2018-08-17T20:10:45.824Z,55.60
2018-08-17T20:13:14.147Z,55.30
2018-08-17T20:15:42.523Z,55.90
2018-08-17T20:18:11.151Z,56.10
2018-08-17T20:20:39.464Z,56.20
2018-08-17T20:23:07.781Z,56.30
2018-08-17T20:25:36.161Z,56.50
2018-08-17T20:28:04.447Z,56.50
2018-08-17T20:30:32.759Z,56.70
2018-08-17T20:33:01.141Z,56.80
2018-08-17T20:35:29.536Z,57.00
2018-08-17T20:37:57.915Z,57.10
2018-08-17T20:40:26.245Z,57.20
2018-08-17T20:42:54.583Z,57.20
2018-08-17T20:45:25.985Z,57.30
2018-08-17T20:47:54.394Z,57.30
2018-08-17T20:50:22.709Z,57.40
2018-08-17T20:52:56.478Z,57.60
2018-08-17T20:55:24.786Z,57.70
2018-08-17T20:57:54.201Z,57.70
2018-08-17T21:00:23.717Z,57.80
2018-08-17T21:02:52.028Z,58.00
2018-08-17T21:05:20.331Z,57.90
2018-08-17T21:07:49.345Z,58.00
2018-08-17T21:10:17.716Z,58.20
2018-08-17T21:12:46.870Z,58.20
2018-08-17T21:15:15.300Z,58.30
2018-08-17T21:17:43.649Z,58.40
2018-08-17T21:20:11.979Z,58.40
2018-08-17T21:22:40.348Z,58.60
2018-08-17T21:25:08.831Z,59.30
2018-08-17T21:27:37.154Z,58.70
2018-08-17T21:30:06.234Z,58.80
2018-08-17T21:32:34.563Z,59.00
2018-08-17T21:35:02.985Z,59.10
2018-08-17T21:37:31.259Z,59.10
2018-08-17T21:39:59.589Z,59.20
2018-08-17T21:42:27.987Z,59.30
2018-08-17T21:44:56.335Z,59.40
2018-08-17T21:47:24.676Z,59.50
2018-08-17T21:49:54.828Z,59.50
2018-08-17T21:52:23.160Z,59.50
2018-08-17T21:54:51.464Z,59.70
2018-08-17T21:57:19.793Z,59.90
2018-08-17T21:59:49.504Z,60.00
2018-08-17T22:02:18.733Z,60.00
2018-08-17T22:04:46.968Z,60.20
2018-08-17T22:07:23.940Z,60.20
2018-08-17T22:09:53.367Z,60.40
2018-08-17T22:12:21.843Z,60.50
2018-08-17T22:14:50.480Z,60.60
2018-08-17T22:17:31.102Z,60.60
2018-08-17T22:19:59.470Z,60.60
2018-08-17T22:22:27.847Z,60.70
2018-08-17T22:24:57.335Z,61.40
2018-08-17T22:27:26.869Z,60.80
2018-08-17T22:29:56.403Z,61.00
2018-08-17T22:32:25.000Z,61.20
2018-08-17T22:34:53.501Z,61.30
2018-08-17T22:37:21.841Z,61.40
2018-08-17T22:39:50.149Z,61.50
2018-08-17T22:42:20.015Z,61.60
2018-08-17T22:44:48.640Z,61.70
2018-08-17T22:47:20.251Z,61.90
2018-08-17T22:49:49.240Z,62.00
2018-08-17T22:52:17.581Z,62.10
2018-08-17T22:54:51.348Z,62.20
2018-08-17T22:57:19.714Z,62.40
2018-08-17T23:00:02.513Z,62.60
2018-08-17T23:02:30.851Z,62.70
2018-08-17T23:04:59.184Z,62.80
2018-08-17T23:07:27.550Z,63.00
2018-08-17T23:09:55.849Z,63.10
2018-08-17T23:12:24.172Z,63.40
2018-08-17T23:14:52.522Z,63.40
2018-08-17T23:17:20.832Z,63.60
2018-08-17T23:19:49.143Z,63.70
2018-08-17T23:22:17.464Z,63.60
2018-08-17T23:24:45.839Z,63.70
2018-08-17T23:27:14.156Z,63.80
2018-08-17T23:29:42.614Z,63.80
2018-08-17T23:32:10.967Z,63.90
2018-08-17T23:34:39.287Z,63.80
2018-08-17T23:37:07.583Z,64.60
2018-08-17T23:39:35.901Z,63.90
2018-08-17T23:42:04.208Z,64.00
2018-08-17T23:44:32.576Z,64.00
2018-08-17T23:47:00.909Z,64.00
2018-08-17T23:49:29.262Z,64.10
2018-08-17T23:51:57.666Z,64.20
2018-08-17T23:54:26.041Z,64.20
2018-08-17T23:56:54.354Z,64.10
2018-08-17T23:59:22.705Z,64.20
